PWSweather.com
Personal Weather Stations
Station Observations
TENMILE2
Watts Bar Lake, Ten Mile, TN 37880

Watts Bar LakeTen Mile, TN 37880

Lat: 35.686, Lon: -84.7068

Elevation: 767

Station Type: Davis VP2

http://www.wattsbarweather.net

Latest ConditionsUpdated 7:15:08 AM EDT Monday, Apr 24, 2017
Currently Today's Max Today's Min Today's Average
Temperature 52.8°F11.6°C 54.6°F12.6°C 52.8°F11.6°C 53.4°F11.9°C
Dew Point 51.4°F10.8°C 52.9°F11.6°C 50.9°F10.5°C 51.8°F11.0°C
Winds Calm Calm 4.2 mph NNW6.8 kmh NNW - 1.5 mph 2.4 kmh
Wind Gusts 1.3 mph2.1 kmh 10.0 mph16.1 kmh - -
Humidity 95% 96% 93% 95%
Pressure 29.82 in1009.8 mb 29.84 in1010.5 mb 29.81 in1009.5 mb -
Precipitation - 0.03 in0.8 mm - -
Hour Temp Dew Point Humidity Winds Wind Gusts Pressure Precip Precip Rate Daily Precip Total
07:15 AM 52.8°F11.6°C 51.4°F10.8°C 95% Calm Calm 1.3 mph2.1 kmh 29.82 in1009.8 mb 0.00 in0.0 mm 0.00 in0.0 mm 0.03 in0.8 mm
07:10 AM 52.8°F11.6°C 51.4°F10.8°C 95% 1.3 mph N2.1 kmh N 1.3 mph2.1 kmh 29.82 in1009.8 mb 0.00 in0.0 mm 0.00 in0.0 mm 0.03 in0.8 mm
07:05 AM 52.8°F11.6°C 51.4°F10.8°C 95% Calm Calm 1.0 mph1.6 kmh 29.82 in1009.8 mb 0.00 in0.0 mm 0.00 in0.0 mm 0.03 in0.8 mm
07:00 AM 52.8°F11.6°C 51.4°F10.8°C 95% Calm Calm 2.0 mph3.2 kmh 29.82 in1009.8 mb 0.00 in0.0 mm 0.00 in0.0 mm 0.03 in0.8 mm
06:55 AM 52.9°F11.6°C 51.2°F10.7°C 94% Calm Calm 2.0 mph3.2 kmh 29.82 in1009.8 mb 0.00 in0.0 mm 0.00 in0.0 mm 0.03 in0.8 mm
06:50 AM 52.8°F11.6°C 51.1°F10.6°C 94% Calm Calm 2.5 mph4.0 kmh 29.82 in1009.8 mb 0.00 in0.0 mm 0.00 in0.0 mm 0.03 in0.8 mm
06:45 AM 52.8°F11.6°C 51.1°F10.6°C 94% 1.3 mph NNE2.1 kmh NNE 2.5 mph4.0 kmh 29.82 in1009.8 mb 0.00 in0.0 mm 0.00 in0.0 mm 0.03 in0.8 mm
06:40 AM 52.8°F11.6°C 51.4°F10.8°C 95% 1.3 mph NE2.1 kmh NE 3.0 mph4.8 kmh 29.82 in1009.8 mb 0.00 in0.0 mm 0.00 in0.0 mm 0.03 in0.8 mm
06:34 AM 52.8°F11.6°C 51.1°F10.6°C 94% 1.3 mph E2.1 kmh E 4.0 mph6.4 kmh 29.82 in1009.8 mb 0.00 in0.0 mm 0.00 in0.0 mm 0.03 in0.8 mm
06:30 AM 52.9°F11.6°C 51.2°F10.7°C 94% 1.3 mph E2.1 kmh E 5.0 mph8.0 kmh 29.81 in1009.5 mb 0.00 in0.0 mm 0.00 in0.0 mm 0.03 in0.8 mm
06:24 AM 53.0°F11.7°C 51.0°F10.6°C 93% Calm Calm 5.0 mph8.0 kmh 29.81 in1009.5 mb 0.00 in0.0 mm 0.00 in0.0 mm 0.03 in0.8 mm
06:19 AM 52.9°F11.6°C 50.9°F10.5°C 93% 1.3 mph NNW2.1 kmh NNW 4.0 mph6.4 kmh 29.81 in1009.5 mb 0.00 in0.0 mm 0.00 in0.0 mm 0.03 in0.8 mm
06:14 AM 53.0°F11.7°C 51.3°F10.7°C 94% 2.7 mph NNW4.3 kmh NNW 3.8 mph6.1 kmh 29.81 in1009.5 mb 0.00 in0.0 mm 0.00 in0.0 mm 0.03 in0.8 mm
06:09 AM 53.0°F11.7°C 51.3°F10.7°C 94% 1.3 mph NE2.1 kmh NE 3.8 mph6.1 kmh 29.81 in1009.5 mb 0.00 in0.0 mm 0.00 in0.0 mm 0.03 in0.8 mm
06:04 AM 53.0°F11.7°C 51.0°F10.6°C 93% 1.5 mph N2.4 kmh N 5.0 mph8.0 kmh 29.82 in1009.8 mb 0.00 in0.0 mm 0.00 in0.0 mm 0.03 in0.8 mm
05:59 AM 53.0°F11.7°C 51.3°F10.7°C 94% 2.2 mph N3.5 kmh N 5.0 mph8.0 kmh 29.82 in1009.8 mb 0.00 in0.0 mm 0.00 in0.0 mm 0.03 in0.8 mm
05:54 AM 53.0°F11.7°C 51.3°F10.7°C 94% 1.7 mph ENE2.7 kmh ENE 3.0 mph4.8 kmh 29.82 in1009.8 mb 0.00 in0.0 mm 0.00 in0.0 mm 0.03 in0.8 mm
05:49 AM 52.9°F11.6°C 51.2°F10.7°C 94% 1.6 mph NE2.6 kmh NE 3.8 mph6.1 kmh 29.82 in1009.8 mb 0.00 in0.0 mm 0.00 in0.0 mm 0.03 in0.8 mm
05:44 AM 52.9°F11.6°C 51.2°F10.7°C 94% 1.5 mph N2.4 kmh N 3.8 mph6.1 kmh 29.82 in1009.8 mb 0.00 in0.0 mm 0.00 in0.0 mm 0.03 in0.8 mm
05:39 AM 52.8°F11.6°C 51.1°F10.6°C 94% 1.7 mph N2.7 kmh N 2.5 mph4.0 kmh 29.81 in1009.5 mb 0.00 in0.0 mm 0.00 in0.0 mm 0.03 in0.8 mm
05:34 AM 52.8°F11.6°C 51.4°F10.8°C 95% Calm Calm 2.5 mph4.0 kmh 29.81 in1009.5 mb 0.00 in0.0 mm 0.00 in0.0 mm 0.03 in0.8 mm
05:29 AM 52.9°F11.6°C 51.5°F10.8°C 95% 1.3 mph N2.1 kmh N 2.0 mph3.2 kmh 29.81 in1009.5 mb 0.00 in0.0 mm 0.00 in0.0 mm 0.03 in0.8 mm
05:24 AM 52.9°F11.6°C 51.5°F10.8°C 95% Calm Calm 2.5 mph4.0 kmh 29.81 in1009.5 mb 0.00 in0.0 mm 0.00 in0.0 mm 0.03 in0.8 mm
05:19 AM 52.8°F11.6°C 51.4°F10.8°C 95% 1.8 mph N2.9 kmh N 2.5 mph4.0 kmh 29.81 in1009.5 mb 0.00 in0.0 mm 0.00 in0.0 mm 0.03 in0.8 mm
05:14 AM 52.9°F11.6°C 51.5°F10.8°C 95% 1.3 mph N2.1 kmh N 2.5 mph4.0 kmh 29.81 in1009.5 mb 0.00 in0.0 mm 0.00 in0.0 mm 0.03 in0.8 mm
05:09 AM 52.9°F11.6°C 51.5°F10.8°C 95% Calm Calm 2.5 mph4.0 kmh 29.81 in1009.5 mb 0.00 in0.0 mm 0.00 in0.0 mm 0.03 in0.8 mm
05:04 AM 52.9°F11.6°C 51.5°F10.8°C 95% 1.3 mph NE2.1 kmh NE 2.0 mph3.2 kmh 29.81 in1009.5 mb 0.00 in0.0 mm 0.00 in0.0 mm 0.03 in0.8 mm
04:59 AM 52.9°F11.6°C 51.5°F10.8°C 95% 1.3 mph NNW2.1 kmh NNW 2.0 mph3.2 kmh 29.81 in1009.5 mb 0.00 in0.0 mm 0.00 in0.0 mm 0.03 in0.8 mm
04:54 AM 53.0°F11.7°C 51.6°F10.9°C 95% 1.3 mph N2.1 kmh N 2.5 mph4.0 kmh 29.81 in1009.5 mb 0.00 in0.0 mm 0.00 in0.0 mm 0.03 in0.8 mm
04:49 AM 53.0°F11.7°C 51.6°F10.9°C 95% 1.3 mph ENE2.1 kmh ENE 2.5 mph4.0 kmh 29.81 in1009.5 mb 0.00 in0.0 mm 0.00 in0.0 mm 0.03 in0.8 mm
04:44 AM 53.0°F11.7°C 51.6°F10.9°C 95% 1.5 mph NNW2.4 kmh NNW 2.5 mph4.0 kmh 29.81 in1009.5 mb 0.00 in0.0 mm 0.00 in0.0 mm 0.03 in0.8 mm
04:39 AM 53.0°F11.7°C 51.6°F10.9°C 95% 1.3 mph ENE2.1 kmh ENE 2.5 mph4.0 kmh 29.81 in1009.5 mb 0.00 in0.0 mm 0.00 in0.0 mm 0.03 in0.8 mm
04:34 AM 53.0°F11.7°C 51.6°F10.9°C 95% 1.3 mph NE2.1 kmh NE 2.5 mph4.0 kmh 29.81 in1009.5 mb 0.00 in0.0 mm 0.00 in0.0 mm 0.03 in0.8 mm
04:29 AM 53.0°F11.7°C 51.6°F10.9°C 95% 1.5 mph NE2.4 kmh NE 3.0 mph4.8 kmh 29.81 in1009.5 mb 0.00 in0.0 mm 0.00 in0.0 mm 0.03 in0.8 mm
04:24 AM 53.0°F11.7°C 51.6°F10.9°C 95% 1.3 mph NNE2.1 kmh NNE 3.0 mph4.8 kmh 29.82 in1009.8 mb 0.00 in0.0 mm 0.00 in0.0 mm 0.03 in0.8 mm
04:19 AM 53.1°F11.7°C 51.7°F10.9°C 95% Calm Calm 3.8 mph6.1 kmh 29.82 in1009.8 mb 0.00 in0.0 mm 0.00 in0.0 mm 0.03 in0.8 mm
04:14 AM 53.0°F11.7°C 51.6°F10.9°C 95% 2.2 mph NNW3.5 kmh NNW 4.0 mph6.4 kmh 29.81 in1009.5 mb 0.00 in0.0 mm 0.00 in0.0 mm 0.03 in0.8 mm
04:09 AM 53.0°F11.7°C 51.6°F10.9°C 95% 1.4 mph NW2.3 kmh NW 5.0 mph8.0 kmh 29.81 in1009.5 mb 0.00 in0.0 mm 0.00 in0.0 mm 0.03 in0.8 mm
04:04 AM 53.0°F11.7°C 51.6°F10.9°C 95% 1.7 mph N2.7 kmh N 5.0 mph8.0 kmh 29.82 in1009.8 mb 0.00 in0.0 mm 0.00 in0.0 mm 0.03 in0.8 mm
03:59 AM 53.0°F11.7°C 51.6°F10.9°C 95% 1.4 mph NNW2.3 kmh NNW 2.5 mph4.0 kmh 29.82 in1009.8 mb 0.00 in0.0 mm 0.00 in0.0 mm 0.03 in0.8 mm
03:54 AM 53.0°F11.7°C 51.6°F10.9°C 95% Calm Calm 4.0 mph6.4 kmh 29.82 in1009.8 mb 0.00 in0.0 mm 0.00 in0.0 mm 0.03 in0.8 mm
03:49 AM 53.0°F11.7°C 51.6°F10.9°C 95% Calm Calm 5.0 mph8.0 kmh 29.81 in1009.5 mb 0.00 in0.0 mm 0.00 in0.0 mm 0.03 in0.8 mm
03:44 AM 53.0°F11.7°C 51.6°F10.9°C 95% 1.6 mph NNW2.6 kmh NNW 5.0 mph8.0 kmh 29.81 in1009.5 mb 0.00 in0.0 mm 0.00 in0.0 mm 0.03 in0.8 mm
03:39 AM 53.0°F11.7°C 51.6°F10.9°C 95% 1.5 mph N2.4 kmh N 3.8 mph6.1 kmh 29.82 in1009.8 mb 0.00 in0.0 mm 0.00 in0.0 mm 0.03 in0.8 mm
03:34 AM 53.1°F11.7°C 51.7°F10.9°C 95% 1.3 mph NE2.1 kmh NE 3.0 mph4.8 kmh 29.82 in1009.8 mb 0.01 in0.3 mm 0.00 in0.0 mm 0.03 in0.8 mm
03:29 AM 53.2°F11.8°C 51.8°F11.0°C 95% 1.3 mph NNW2.1 kmh NNW 3.8 mph6.1 kmh 29.82 in1009.8 mb 0.01 in0.3 mm 0.00 in0.0 mm 0.03 in0.8 mm
03:24 AM 53.1°F11.7°C 51.7°F10.9°C 95% 2.1 mph NNE3.4 kmh NNE 3.8 mph6.1 kmh 29.82 in1009.8 mb 0.02 in0.5 mm 0.00 in0.0 mm 0.03 in0.8 mm
03:19 AM 53.1°F11.7°C 51.7°F10.9°C 95% 1.3 mph N2.1 kmh N 2.5 mph4.0 kmh 29.82 in1009.8 mb 0.02 in0.5 mm 0.00 in0.0 mm 0.03 in0.8 mm
03:14 AM 53.1°F11.7°C 52.0°F11.1°C 96% 1.9 mph NNW3.1 kmh NNW 2.5 mph4.0 kmh 29.82 in1009.8 mb 0.03 in0.8 mm 0.00 in0.0 mm 0.03 in0.8 mm
03:09 AM 53.1°F11.7°C 51.7°F10.9°C 95% 1.3 mph NNW2.1 kmh NNW 2.5 mph4.0 kmh 29.82 in1009.8 mb 0.03 in0.8 mm 0.00 in0.0 mm 0.03 in0.8 mm
03:04 AM 53.1°F11.7°C 51.7°F10.9°C 95% 1.5 mph NNW2.4 kmh NNW 2.5 mph4.0 kmh 29.82 in1009.8 mb 0.03 in0.8 mm 0.00 in0.0 mm 0.03 in0.8 mm
02:59 AM 53.1°F11.7°C 51.7°F10.9°C 95% Calm Calm 3.0 mph4.8 kmh 29.82 in1009.8 mb 0.03 in0.8 mm 0.00 in0.0 mm 0.03 in0.8 mm
02:54 AM 53.2°F11.8°C 51.8°F11.0°C 95% Calm Calm 4.0 mph6.4 kmh 29.82 in1009.8 mb 0.03 in0.8 mm 0.00 in0.0 mm 0.03 in0.8 mm
02:49 AM 53.2°F11.8°C 51.8°F11.0°C 95% 1.3 mph NE2.1 kmh NE 4.0 mph6.4 kmh 29.82 in1009.8 mb 0.03 in0.8 mm 0.00 in0.0 mm 0.03 in0.8 mm
02:44 AM 53.1°F11.7°C 51.7°F10.9°C 95% 2.1 mph NW3.4 kmh NW 5.0 mph8.0 kmh 29.82 in1009.8 mb 0.03 in0.8 mm 0.00 in0.0 mm 0.03 in0.8 mm
02:39 AM 53.2°F11.8°C 51.8°F11.0°C 95% 2.1 mph N3.4 kmh N 5.0 mph8.0 kmh 29.82 in1009.8 mb 0.03 in0.8 mm 0.12 in3.0 mm 0.03 in0.8 mm
02:34 AM 53.2°F11.8°C 51.8°F11.0°C 95% 1.4 mph NNW2.3 kmh NNW 5.0 mph8.0 kmh 29.82 in1009.8 mb 0.02 in0.5 mm 0.00 in0.0 mm 0.02 in0.5 mm
02:29 AM 53.3°F11.8°C 51.9°F11.1°C 95% 1.3 mph NNE2.1 kmh NNE 5.0 mph8.0 kmh 29.83 in1010.2 mb 0.02 in0.5 mm 0.12 in3.0 mm 0.02 in0.5 mm
02:24 AM 53.4°F11.9°C 52.0°F11.1°C 95% 2.7 mph NNW4.3 kmh NNW 5.0 mph8.0 kmh 29.83 in1010.2 mb 0.01 in0.3 mm 0.00 in0.0 mm 0.01 in0.3 mm
02:19 AM 53.5°F11.9°C 52.1°F11.2°C 95% 1.3 mph N2.1 kmh N 3.8 mph6.1 kmh 29.83 in1010.2 mb 0.01 in0.3 mm 0.12 in3.0 mm 0.01 in0.3 mm
02:14 AM 53.5°F11.9°C 52.1°F11.2°C 95% 2.3 mph N3.7 kmh N 4.0 mph6.4 kmh 29.83 in1010.2 mb 0.00 in0.0 mm 0.00 in0.0 mm 0.00 in0.0 mm
02:09 AM 53.6°F12.0°C 51.9°F11.1°C 94% 1.8 mph NE2.9 kmh NE 6.0 mph9.7 kmh 29.83 in1010.2 mb 0.00 in0.0 mm 0.00 in0.0 mm 0.00 in0.0 mm
02:04 AM 53.7°F12.1°C 52.0°F11.1°C 94% 1.3 mph N2.1 kmh N 8.0 mph12.9 kmh 29.83 in1010.2 mb 0.00 in0.0 mm 0.00 in0.0 mm 0.00 in0.0 mm
01:59 AM 53.7°F12.1°C 52.0°F11.1°C 94% 2.5 mph NNE4.0 kmh NNE 10.0 mph16.1 kmh 29.83 in1010.2 mb 0.00 in0.0 mm 0.00 in0.0 mm 0.00 in0.0 mm
01:54 AM 53.8°F12.1°C 52.1°F11.2°C 94% 2.8 mph NNW4.5 kmh NNW 10.0 mph16.1 kmh 29.83 in1010.2 mb 0.00 in0.0 mm 0.00 in0.0 mm 0.00 in0.0 mm
01:49 AM 53.9°F12.2°C 52.2°F11.2°C 94% 2.8 mph NNW4.5 kmh NNW 7.5 mph12.1 kmh 29.83 in1010.2 mb 0.00 in0.0 mm 0.00 in0.0 mm 0.00 in0.0 mm
01:44 AM 54.0°F12.2°C 52.3°F11.3°C 94% 3.3 mph N5.3 kmh N 7.5 mph12.1 kmh 29.83 in1010.2 mb 0.00 in0.0 mm 0.00 in0.0 mm 0.00 in0.0 mm
01:38 AM 54.1°F12.3°C 52.4°F11.3°C 94% 3.3 mph NNW5.3 kmh NNW 7.0 mph11.3 kmh 29.84 in1010.5 mb 0.00 in0.0 mm 0.00 in0.0 mm 0.00 in0.0 mm
01:33 AM 54.2°F12.3°C 52.5°F11.4°C 94% 2.7 mph NNW4.3 kmh NNW 8.8 mph14.2 kmh 29.84 in1010.5 mb 0.00 in0.0 mm 0.00 in0.0 mm 0.00 in0.0 mm
01:28 AM 54.2°F12.3°C 52.5°F11.4°C 94% 4.2 mph NNW6.8 kmh NNW 8.8 mph14.2 kmh 29.84 in1010.5 mb 0.00 in0.0 mm 0.00 in0.0 mm 0.00 in0.0 mm
01:23 AM 54.3°F12.4°C 52.6°F11.4°C 94% 3.5 mph NNW5.6 kmh NNW 5.0 mph8.0 kmh 29.84 in1010.5 mb 0.00 in0.0 mm 0.00 in0.0 mm 0.00 in0.0 mm
01:18 AM 54.3°F12.4°C 52.6°F11.4°C 94% 1.4 mph NNW2.3 kmh NNW 5.0 mph8.0 kmh 29.84 in1010.5 mb 0.00 in0.0 mm 0.00 in0.0 mm 0.00 in0.0 mm
01:13 AM 54.4°F12.4°C 52.7°F11.5°C 94% 2.5 mph NNW4.0 kmh NNW 5.0 mph8.0 kmh 29.84 in1010.5 mb 0.00 in0.0 mm 0.00 in0.0 mm 0.00 in0.0 mm
01:08 AM 54.4°F12.4°C 52.7°F11.5°C 94% 1.8 mph N2.9 kmh N 4.0 mph6.4 kmh 29.84 in1010.5 mb 0.00 in0.0 mm 0.00 in0.0 mm 0.00 in0.0 mm
01:03 AM 54.5°F12.5°C 52.8°F11.6°C 94% 2.1 mph NNW3.4 kmh NNW 5.0 mph8.0 kmh 29.84 in1010.5 mb 0.00 in0.0 mm 0.00 in0.0 mm 0.00 in0.0 mm
12:58 AM 54.5°F12.5°C 52.8°F11.6°C 94% 1.7 mph N2.7 kmh N 5.0 mph8.0 kmh 29.84 in1010.5 mb 0.00 in0.0 mm 0.00 in0.0 mm 0.00 in0.0 mm
12:53 AM 54.6°F12.6°C 52.9°F11.6°C 94% Calm Calm 5.0 mph8.0 kmh 29.84 in1010.5 mb 0.00 in0.0 mm 0.00 in0.0 mm 0.00 in0.0 mm
12:48 AM 54.6°F12.6°C 52.9°F11.6°C 94% Calm Calm 5.0 mph8.0 kmh 29.84 in1010.5 mb 0.00 in0.0 mm 0.00 in0.0 mm 0.00 in0.0 mm
12:43 AM 54.6°F12.6°C 52.9°F11.6°C 94% 1.3 mph NNW2.1 kmh NNW 7.0 mph11.3 kmh 29.84 in1010.5 mb 0.00 in0.0 mm 0.00 in0.0 mm 0.00 in0.0 mm
12:38 AM 54.5°F12.5°C 52.8°F11.6°C 94% 3.5 mph N5.6 kmh N 7.0 mph11.3 kmh 29.84 in1010.5 mb 0.00 in0.0 mm 0.00 in0.0 mm 0.00 in0.0 mm
12:33 AM 54.6°F12.6°C 52.9°F11.6°C 94% 2.1 mph N3.4 kmh N 8.8 mph14.2 kmh 29.84 in1010.5 mb 0.00 in0.0 mm 0.00 in0.0 mm 0.00 in0.0 mm
12:28 AM 54.6°F12.6°C 52.9°F11.6°C 94% 2.7 mph N4.3 kmh N 8.8 mph14.2 kmh 29.84 in1010.5 mb 0.00 in0.0 mm 0.00 in0.0 mm 0.00 in0.0 mm
12:23 AM 54.6°F12.6°C 52.9°F11.6°C 94% 2.0 mph NW3.2 kmh NW 6.0 mph9.7 kmh 29.84 in1010.5 mb 0.00 in0.0 mm 0.00 in0.0 mm 0.00 in0.0 mm
12:18 AM 54.6°F12.6°C 52.9°F11.6°C 94% 1.3 mph N2.1 kmh N 6.0 mph9.7 kmh 29.84 in1010.5 mb 0.00 in0.0 mm 0.00 in0.0 mm 0.00 in0.0 mm
12:13 AM 54.6°F12.6°C 52.9°F11.6°C 94% 2.1 mph NNW3.4 kmh NNW 7.5 mph12.1 kmh 29.84 in1010.5 mb 0.00 in0.0 mm 0.00 in0.0 mm 0.00 in0.0 mm
12:08 AM 54.6°F12.6°C 52.9°F11.6°C 94% 1.4 mph NNE2.3 kmh NNE 7.5 mph12.1 kmh 29.84 in1010.5 mb 0.00 in0.0 mm 0.00 in0.0 mm 0.00 in0.0 mm
12:03 AM 54.6°F12.6°C 52.9°F11.6°C 94% 1.7 mph N2.7 kmh N 5.0 mph8.0 kmh 29.84 in1010.5 mb 0.00 in0.0 mm 0.00 in0.0 mm 0.00 in0.0 mm